sensor_id;sensor_type;location;lat;lon;timestamp;P1;durP1;ratioP1;P2;durP2;ratioP2
22111;SDS011;11222;50.872;4.312;2023-05-10T00:00:57;15.32;;;10.57;;
22111;SDS011;11222;50.872;4.312;2023-05-10T00:03:23;19.27;;;10.30;;
22111;SDS011;11222;50.872;4.312;2023-05-10T00:05:48;18.95;;;10.07;;
22111;SDS011;11222;50.872;4.312;2023-05-10T00:08:14;17.88;;;10.55;;
22111;SDS011;11222;50.872;4.312;2023-05-10T00:10:40;20.10;;;10.32;;
22111;SDS011;11222;50.872;4.312;2023-05-10T00:13:06;22.02;;;10.48;;
22111;SDS011;11222;50.872;4.312;2023-05-10T00:15:32;19.85;;;11.00;;
22111;SDS011;11222;50.872;4.312;2023-05-10T00:17:57;19.60;;;10.52;;
22111;SDS011;11222;50.872;4.312;2023-05-10T00:20:23;20.05;;;10.60;;
22111;SDS011;11222;50.872;4.312;2023-05-10T00:22:49;18.98;;;10.65;;
22111;SDS011;11222;50.872;4.312;2023-05-10T00:25:15;16.95;;;11.02;;
22111;SDS011;11222;50.872;4.312;2023-05-10T00:27:40;18.20;;;10.98;;
22111;SDS011;11222;50.872;4.312;2023-05-10T00:30:06;18.30;;;11.40;;
22111;SDS011;11222;50.872;4.312;2023-05-10T00:32:32;18.55;;;11.07;;
22111;SDS011;11222;50.872;4.312;2023-05-10T00:34:58;24.73;;;11.50;;
22111;SDS011;11222;50.872;4.312;2023-05-10T00:37:24;17.52;;;11.27;;
22111;SDS011;11222;50.872;4.312;2023-05-10T00:39:50;18.33;;;11.02;;
22111;SDS011;11222;50.872;4.312;2023-05-10T00:42:15;19.75;;;11.40;;
22111;SDS011;11222;50.872;4.312;2023-05-10T00:44:41;21.90;;;11.93;;
22111;SDS011;11222;50.872;4.312;2023-05-10T00:47:07;19.27;;;11.10;;
22111;SDS011;11222;50.872;4.312;2023-05-10T00:49:33;25.58;;;11.65;;
22111;SDS011;11222;50.872;4.312;2023-05-10T00:52:00;18.48;;;11.20;;
22111;SDS011;11222;50.872;4.312;2023-05-10T00:54:27;19.15;;;11.25;;
22111;SDS011;11222;50.872;4.312;2023-05-10T00:56:52;19.80;;;11.55;;
22111;SDS011;11222;50.872;4.312;2023-05-10T00:59:18;19.73;;;11.23;;
22111;SDS011;11222;50.872;4.312;2023-05-10T01:01:44;17.60;;;11.25;;
22111;SDS011;11222;50.872;4.312;2023-05-10T01:04:14;24.50;;;12.27;;
22111;SDS011;11222;50.872;4.312;2023-05-10T01:06:40;19.73;;;11.77;;
22111;SDS011;11222;50.872;4.312;2023-05-10T01:09:07;21.67;;;12.48;;
22111;SDS011;11222;50.872;4.312;2023-05-10T01:11:36;23.33;;;11.80;;
22111;SDS011;11222;50.872;4.312;2023-05-10T01:14:03;24.08;;;13.32;;
22111;SDS011;11222;50.872;4.312;2023-05-10T01:16:40;21.35;;;12.93;;
22111;SDS011;11222;50.872;4.312;2023-05-10T01:19:11;20.35;;;12.38;;
22111;SDS011;11222;50.872;4.312;2023-05-10T01:37:29;25.08;;;14.00;;
22111;SDS011;11222;50.872;4.312;2023-05-10T01:40:23;23.30;;;13.90;;
22111;SDS011;11222;50.872;4.312;2023-05-10T01:43:13;30.13;;;14.82;;
22111;SDS011;11222;50.872;4.312;2023-05-10T01:46:03;29.02;;;14.20;;
22111;SDS011;11222;50.872;4.312;2023-05-10T01:48:45;31.33;;;15.52;;
22111;SDS011;11222;50.872;4.312;2023-05-10T01:51:16;23.80;;;14.02;;
22111;SDS011;11222;50.872;4.312;2023-05-10T01:53:46;27.02;;;15.38;;
22111;SDS011;11222;50.872;4.312;2023-05-10T01:56:13;23.48;;;14.40;;
22111;SDS011;11222;50.872;4.312;2023-05-10T01:58:43;24.65;;;14.45;;
22111;SDS011;11222;50.872;4.312;2023-05-10T02:01:12;25.15;;;15.45;;
22111;SDS011;11222;50.872;4.312;2023-05-10T02:03:38;26.40;;;15.00;;
22111;SDS011;11222;50.872;4.312;2023-05-10T02:06:06;24.48;;;14.90;;
22111;SDS011;11222;50.872;4.312;2023-05-10T02:08:33;23.20;;;14.75;;
22111;SDS011;11222;50.872;4.312;2023-05-10T02:11:01;25.83;;;14.80;;
22111;SDS011;11222;50.872;4.312;2023-05-10T02:13:28;27.30;;;15.02;;
22111;SDS011;11222;50.872;4.312;2023-05-10T02:15:56;26.33;;;15.98;;
22111;SDS011;11222;50.872;4.312;2023-05-10T02:18:24;26.50;;;14.52;;
22111;SDS011;11222;50.872;4.312;2023-05-10T02:20:51;30.48;;;15.95;;
22111;SDS011;11222;50.872;4.312;2023-05-10T02:23:19;25.45;;;15.10;;
22111;SDS011;11222;50.872;4.312;2023-05-10T02:25:46;27.75;;;15.30;;
22111;SDS011;11222;50.872;4.312;2023-05-10T02:28:13;27.45;;;15.48;;
22111;SDS011;11222;50.872;4.312;2023-05-10T02:30:40;28.58;;;15.45;;
22111;SDS011;11222;50.872;4.312;2023-05-10T02:33:06;29.58;;;15.52;;
22111;SDS011;11222;50.872;4.312;2023-05-10T02:35:33;27.30;;;14.80;;
22111;SDS011;11222;50.872;4.312;2023-05-10T02:37:59;25.88;;;15.55;;
22111;SDS011;11222;50.872;4.312;2023-05-10T02:40:26;27.55;;;14.88;;
22111;SDS011;11222;50.872;4.312;2023-05-10T02:42:54;26.05;;;14.75;;
22111;SDS011;11222;50.872;4.312;2023-05-10T02:45:22;25.02;;;14.48;;
22111;SDS011;11222;50.872;4.312;2023-05-10T02:47:53;28.33;;;14.63;;
22111;SDS011;11222;50.872;4.312;2023-05-10T02:50:19;24.83;;;14.63;;
22111;SDS011;11222;50.872;4.312;2023-05-10T02:52:52;23.42;;;14.32;;
22111;SDS011;11222;50.872;4.312;2023-05-10T02:55:25;28.17;;;14.07;;
22111;SDS011;11222;50.872;4.312;2023-05-10T02:57:58;24.88;;;14.05;;
22111;SDS011;11222;50.872;4.312;2023-05-10T03:00:25;25.65;;;14.10;;
22111;SDS011;11222;50.872;4.312;2023-05-10T03:02:51;23.17;;;13.75;;
22111;SDS011;11222;50.872;4.312;2023-05-10T03:05:17;25.83;;;14.35;;
22111;SDS011;11222;50.872;4.312;2023-05-10T03:07:44;25.85;;;13.70;;
22111;SDS011;11222;50.872;4.312;2023-05-10T03:10:10;25.10;;;14.77;;
22111;SDS011;11222;50.872;4.312;2023-05-10T03:18:07;24.52;;;14.38;;
22111;SDS011;11222;50.872;4.312;2023-05-10T03:20:41;26.15;;;14.98;;
22111;SDS011;11222;50.872;4.312;2023-05-10T03:26:21;27.75;;;15.77;;
22111;SDS011;11222;50.872;4.312;2023-05-10T03:28:50;29.73;;;16.42;;
22111;SDS011;11222;50.872;4.312;2023-05-10T03:31:17;28.77;;;16.38;;
22111;SDS011;11222;50.872;4.312;2023-05-10T03:33:50;30.38;;;16.52;;
22111;SDS011;11222;50.872;4.312;2023-05-10T03:36:17;31.67;;;16.83;;
22111;SDS011;11222;50.872;4.312;2023-05-10T03:38:43;27.60;;;16.02;;
22111;SDS011;11222;50.872;4.312;2023-05-10T03:41:09;31.05;;;18.77;;
22111;SDS011;11222;50.872;4.312;2023-05-10T03:43:34;33.65;;;17.45;;
22111;SDS011;11222;50.872;4.312;2023-05-10T03:46:03;35.95;;;19.17;;
22111;SDS011;11222;50.872;4.312;2023-05-10T03:48:30;31.48;;;18.45;;
22111;SDS011;11222;50.872;4.312;2023-05-10T03:50:57;37.15;;;18.67;;
22111;SDS011;11222;50.872;4.312;2023-05-10T03:53:23;34.70;;;18.63;;
22111;SDS011;11222;50.872;4.312;2023-05-10T03:55:48;34.30;;;19.17;;
22111;SDS011;11222;50.872;4.312;2023-05-10T03:58:14;37.40;;;19.20;;
22111;SDS011;11222;50.872;4.312;2023-05-10T04:00:40;36.97;;;19.42;;
22111;SDS011;11222;50.872;4.312;2023-05-10T04:03:10;40.85;;;21.13;;
22111;SDS011;11222;50.872;4.312;2023-05-10T04:05:36;36.80;;;19.80;;
22111;SDS011;11222;50.872;4.312;2023-05-10T04:08:02;34.17;;;19.70;;
22111;SDS011;11222;50.872;4.312;2023-05-10T04:10:29;40.28;;;20.48;;
22111;SDS011;11222;50.872;4.312;2023-05-10T04:12:54;33.22;;;20.27;;
22111;SDS011;11222;50.872;4.312;2023-05-10T04:15:20;41.25;;;21.45;;
22111;SDS011;11222;50.872;4.312;2023-05-10T04:17:46;41.83;;;20.83;;
22111;SDS011;11222;50.872;4.312;2023-05-10T04:20:12;38.13;;;20.65;;
22111;SDS011;11222;50.872;4.312;2023-05-10T04:22:37;42.58;;;21.98;;
22111;SDS011;11222;50.872;4.312;2023-05-10T04:25:03;38.15;;;21.42;;
22111;SDS011;11222;50.872;4.312;2023-05-10T04:27:30;38.17;;;21.40;;
22111;SDS011;11222;50.872;4.312;2023-05-10T04:29:56;36.28;;;20.52;;
22111;SDS011;11222;50.872;4.312;2023-05-10T04:32:22;42.13;;;22.30;;
22111;SDS011;11222;50.872;4.312;2023-05-10T04:34:48;37.97;;;20.90;;
22111;SDS011;11222;50.872;4.312;2023-05-10T04:37:14;41.00;;;21.48;;
22111;SDS011;11222;50.872;4.312;2023-05-10T04:39:40;39.20;;;21.48;;
22111;SDS011;11222;50.872;4.312;2023-05-10T04:42:06;39.95;;;21.58;;
22111;SDS011;11222;50.872;4.312;2023-05-10T04:44:32;41.42;;;22.42;;
22111;SDS011;11222;50.872;4.312;2023-05-10T04:46:58;43.10;;;22.90;;
22111;SDS011;11222;50.872;4.312;2023-05-10T04:49:23;41.85;;;22.83;;
22111;SDS011;11222;50.872;4.312;2023-05-10T04:51:49;39.53;;;22.75;;
22111;SDS011;11222;50.872;4.312;2023-05-10T04:54:15;40.85;;;22.70;;
22111;SDS011;11222;50.872;4.312;2023-05-10T04:56:40;43.45;;;22.40;;
22111;SDS011;11222;50.872;4.312;2023-05-10T04:59:06;38.38;;;21.10;;
22111;SDS011;11222;50.872;4.312;2023-05-10T05:01:32;41.83;;;23.27;;
22111;SDS011;11222;50.872;4.312;2023-05-10T05:03:58;41.92;;;23.33;;
22111;SDS011;11222;50.872;4.312;2023-05-10T05:06:24;45.08;;;23.83;;
22111;SDS011;11222;50.872;4.312;2023-05-10T05:08:50;39.25;;;22.45;;
22111;SDS011;11222;50.872;4.312;2023-05-10T05:11:16;39.45;;;23.08;;
22111;SDS011;11222;50.872;4.312;2023-05-10T05:13:42;38.10;;;23.25;;
22111;SDS011;11222;50.872;4.312;2023-05-10T05:16:08;43.45;;;23.08;;
22111;SDS011;11222;50.872;4.312;2023-05-10T05:18:35;43.40;;;22.70;;
22111;SDS011;11222;50.872;4.312;2023-05-10T05:21:00;42.65;;;22.63;;
22111;SDS011;11222;50.872;4.312;2023-05-10T05:23:26;40.70;;;21.63;;
22111;SDS011;11222;50.872;4.312;2023-05-10T05:25:52;39.22;;;21.90;;
22111;SDS011;11222;50.872;4.312;2023-05-10T05:28:19;38.50;;;20.90;;
22111;SDS011;11222;50.872;4.312;2023-05-10T05:30:46;37.55;;;21.20;;
22111;SDS011;11222;50.872;4.312;2023-05-10T05:33:15;38.13;;;20.83;;
22111;SDS011;11222;50.872;4.312;2023-05-10T05:35:41;33.45;;;18.15;;
22111;SDS011;11222;50.872;4.312;2023-05-10T05:38:09;29.48;;;15.68;;
22111;SDS011;11222;50.872;4.312;2023-05-10T05:40:35;25.83;;;14.60;;
22111;SDS011;11222;50.872;4.312;2023-05-10T05:43:00;22.73;;;14.20;;
22111;SDS011;11222;50.872;4.312;2023-05-10T05:45:26;25.38;;;14.55;;
22111;SDS011;11222;50.872;4.312;2023-05-10T05:47:52;26.98;;;14.77;;
22111;SDS011;11222;50.872;4.312;2023-05-10T05:50:17;33.05;;;16.88;;
22111;SDS011;11222;50.872;4.312;2023-05-10T05:52:43;28.95;;;16.38;;
22111;SDS011;11222;50.872;4.312;2023-05-10T05:55:09;28.58;;;15.45;;
22111;SDS011;11222;50.872;4.312;2023-05-10T05:57:34;32.83;;;16.65;;
22111;SDS011;11222;50.872;4.312;2023-05-10T06:00:00;31.70;;;16.35;;
22111;SDS011;11222;50.872;4.312;2023-05-10T06:02:27;30.17;;;16.73;;
22111;SDS011;11222;50.872;4.312;2023-05-10T06:04:53;30.30;;;17.33;;
22111;SDS011;11222;50.872;4.312;2023-05-10T06:07:18;36.45;;;17.27;;
22111;SDS011;11222;50.872;4.312;2023-05-10T06:09:44;34.15;;;17.33;;
22111;SDS011;11222;50.872;4.312;2023-05-10T06:12:10;31.52;;;17.42;;
22111;SDS011;11222;50.872;4.312;2023-05-10T06:14:36;34.20;;;18.05;;
22111;SDS011;11222;50.872;4.312;2023-05-10T06:17:02;38.33;;;18.48;;
22111;SDS011;11222;50.872;4.312;2023-05-10T06:19:29;33.42;;;17.55;;
22111;SDS011;11222;50.872;4.312;2023-05-10T06:21:55;34.40;;;19.67;;
22111;SDS011;11222;50.872;4.312;2023-05-10T06:24:21;37.92;;;19.08;;
22111;SDS011;11222;50.872;4.312;2023-05-10T06:26:47;38.35;;;19.70;;
22111;SDS011;11222;50.872;4.312;2023-05-10T06:29:14;35.05;;;19.48;;
22111;SDS011;11222;50.872;4.312;2023-05-10T06:31:40;35.33;;;19.70;;
22111;SDS011;11222;50.872;4.312;2023-05-10T06:34:06;37.42;;;20.30;;
22111;SDS011;11222;50.872;4.312;2023-05-10T06:36:33;43.35;;;20.67;;
22111;SDS011;11222;50.872;4.312;2023-05-10T06:38:58;43.72;;;20.38;;
22111;SDS011;11222;50.872;4.312;2023-05-10T06:41:24;40.92;;;20.67;;
22111;SDS011;11222;50.872;4.312;2023-05-10T06:43:50;45.53;;;20.42;;
22111;SDS011;11222;50.872;4.312;2023-05-10T06:46:15;42.13;;;20.33;;
22111;SDS011;11222;50.872;4.312;2023-05-10T06:48:41;34.97;;;20.60;;
22111;SDS011;11222;50.872;4.312;2023-05-10T06:51:07;45.25;;;20.60;;
22111;SDS011;11222;50.872;4.312;2023-05-10T06:53:32;40.20;;;20.85;;
22111;SDS011;11222;50.872;4.312;2023-05-10T06:55:58;39.25;;;20.92;;
22111;SDS011;11222;50.872;4.312;2023-05-10T06:58:24;37.95;;;19.73;;
22111;SDS011;11222;50.872;4.312;2023-05-10T07:00:50;41.08;;;20.35;;
22111;SDS011;11222;50.872;4.312;2023-05-10T07:03:15;37.05;;;19.77;;
22111;SDS011;11222;50.872;4.312;2023-05-10T07:05:41;47.03;;;22.67;;
22111;SDS011;11222;50.872;4.312;2023-05-10T07:08:07;51.40;;;24.95;;
22111;SDS011;11222;50.872;4.312;2023-05-10T07:10:33;35.10;;;17.90;;
22111;SDS011;11222;50.872;4.312;2023-05-10T07:12:59;37.50;;;18.17;;
22111;SDS011;11222;50.872;4.312;2023-05-10T07:15:26;36.58;;;18.65;;
22111;SDS011;11222;50.872;4.312;2023-05-10T07:17:51;33.35;;;17.05;;
22111;SDS011;11222;50.872;4.312;2023-05-10T07:20:17;35.40;;;18.13;;
22111;SDS011;11222;50.872;4.312;2023-05-10T07:22:43;37.45;;;17.70;;
22111;SDS011;11222;50.872;4.312;2023-05-10T07:25:09;35.38;;;17.98;;
22111;SDS011;11222;50.872;4.312;2023-05-10T07:27:35;37.30;;;16.77;;
22111;SDS011;11222;50.872;4.312;2023-05-10T07:30:01;30.60;;;17.45;;
22111;SDS011;11222;50.872;4.312;2023-05-10T07:32:27;30.67;;;16.13;;
22111;SDS011;11222;50.872;4.312;2023-05-10T07:34:53;35.30;;;16.77;;
22111;SDS011;11222;50.872;4.312;2023-05-10T07:37:19;32.30;;;15.82;;
22111;SDS011;11222;50.872;4.312;2023-05-10T07:39:45;28.52;;;15.50;;
22111;SDS011;11222;50.872;4.312;2023-05-10T07:42:10;28.33;;;14.93;;
22111;SDS011;11222;50.872;4.312;2023-05-10T07:44:37;27.50;;;13.50;;
22111;SDS011;11222;50.872;4.312;2023-05-10T07:47:02;25.73;;;13.07;;
22111;SDS011;11222;50.872;4.312;2023-05-10T07:49:28;26.20;;;13.57;;
22111;SDS011;11222;50.872;4.312;2023-05-10T07:51:54;25.40;;;12.50;;
22111;SDS011;11222;50.872;4.312;2023-05-10T07:54:19;27.88;;;12.48;;
22111;SDS011;11222;50.872;4.312;2023-05-10T07:56:46;26.10;;;12.55;;
22111;SDS011;11222;50.872;4.312;2023-05-10T07:59:15;20.13;;;11.80;;
22111;SDS011;11222;50.872;4.312;2023-05-10T08:01:42;21.90;;;11.70;;
22111;SDS011;11222;50.872;4.312;2023-05-10T08:04:08;26.88;;;12.85;;
22111;SDS011;11222;50.872;4.312;2023-05-10T08:06:34;26.38;;;11.45;;
22111;SDS011;11222;50.872;4.312;2023-05-10T08:09:00;24.65;;;11.60;;
22111;SDS011;11222;50.872;4.312;2023-05-10T08:11:26;19.90;;;11.00;;
22111;SDS011;11222;50.872;4.312;2023-05-10T08:13:54;19.38;;;10.82;;
22111;SDS011;11222;50.872;4.312;2023-05-10T08:16:20;16.65;;;9.82;;
22111;SDS011;11222;50.872;4.312;2023-05-10T08:18:46;19.75;;;10.90;;
22111;SDS011;11222;50.872;4.312;2023-05-10T08:21:12;18.95;;;10.15;;
22111;SDS011;11222;50.872;4.312;2023-05-10T08:23:39;16.08;;;9.18;;
22111;SDS011;11222;50.872;4.312;2023-05-10T08:26:05;14.77;;;8.75;;
22111;SDS011;11222;50.872;4.312;2023-05-10T08:28:31;15.27;;;8.65;;
22111;SDS011;11222;50.872;4.312;2023-05-10T08:30:57;15.10;;;7.88;;
22111;SDS011;11222;50.872;4.312;2023-05-10T08:33:22;17.98;;;8.13;;
22111;SDS011;11222;50.872;4.312;2023-05-10T08:35:48;13.05;;;8.35;;
22111;SDS011;11222;50.872;4.312;2023-05-10T08:38:14;14.93;;;8.35;;
22111;SDS011;11222;50.872;4.312;2023-05-10T08:40:43;20.23;;;9.70;;
22111;SDS011;11222;50.872;4.312;2023-05-10T08:43:11;13.45;;;8.55;;
22111;SDS011;11222;50.872;4.312;2023-05-10T08:45:46;12.93;;;9.23;;
22111;SDS011;11222;50.872;4.312;2023-05-10T08:48:15;14.93;;;9.30;;
22111;SDS011;11222;50.872;4.312;2023-05-10T08:50:41;14.07;;;8.50;;
22111;SDS011;11222;50.872;4.312;2023-05-10T08:53:11;17.77;;;8.90;;
22111;SDS011;11222;50.872;4.312;2023-05-10T08:55:38;13.32;;;8.93;;
22111;SDS011;11222;50.872;4.312;2023-05-10T08:58:07;13.70;;;8.98;;
22111;SDS011;11222;50.872;4.312;2023-05-10T09:00:33;13.15;;;8.57;;
22111;SDS011;11222;50.872;4.312;2023-05-10T09:03:00;14.48;;;7.88;;
22111;SDS011;11222;50.872;4.312;2023-05-10T09:05:26;11.52;;;8.32;;
22111;SDS011;11222;50.872;4.312;2023-05-10T09:07:53;13.75;;;8.73;;
22111;SDS011;11222;50.872;4.312;2023-05-10T09:10:19;12.70;;;8.60;;
22111;SDS011;11222;50.872;4.312;2023-05-10T09:12:45;14.90;;;8.63;;
22111;SDS011;11222;50.872;4.312;2023-05-10T09:15:12;13.02;;;9.30;;
22111;SDS011;11222;50.872;4.312;2023-05-10T09:17:40;14.25;;;9.52;;
22111;SDS011;11222;50.872;4.312;2023-05-10T09:20:09;15.93;;;9.63;;
22111;SDS011;11222;50.872;4.312;2023-05-10T09:22:35;16.63;;;9.95;;
22111;SDS011;11222;50.872;4.312;2023-05-10T09:25:08;15.48;;;10.10;;
22111;SDS011;11222;50.872;4.312;2023-05-10T09:27:35;14.55;;;9.20;;
22111;SDS011;11222;50.872;4.312;2023-05-10T09:30:01;15.23;;;8.88;;
22111;SDS011;11222;50.872;4.312;2023-05-10T09:32:38;14.95;;;9.00;;
22111;SDS011;11222;50.872;4.312;2023-05-10T09:35:11;14.48;;;8.68;;
22111;SDS011;11222;50.872;4.312;2023-05-10T09:37:42;15.55;;;9.65;;
22111;SDS011;11222;50.872;4.312;2023-05-10T09:40:22;16.98;;;9.50;;
22111;SDS011;11222;50.872;4.312;2023-05-10T09:43:08;15.65;;;9.30;;
22111;SDS011;11222;50.872;4.312;2023-05-10T09:45:35;18.77;;;9.45;;
22111;SDS011;11222;50.872;4.312;2023-05-10T09:48:02;13.13;;;9.57;;
22111;SDS011;11222;50.872;4.312;2023-05-10T09:50:30;16.90;;;9.70;;
22111;SDS011;11222;50.872;4.312;2023-05-10T09:52:56;14.40;;;8.98;;
22111;SDS011;11222;50.872;4.312;2023-05-10T09:58:05;13.38;;;8.50;;
22111;SDS011;11222;50.872;4.312;2023-05-10T10:00:36;14.02;;;8.85;;
22111;SDS011;11222;50.872;4.312;2023-05-10T10:03:03;13.30;;;9.32;;
22111;SDS011;11222;50.872;4.312;2023-05-10T10:05:29;13.27;;;8.68;;
22111;SDS011;11222;50.872;4.312;2023-05-10T10:07:56;15.00;;;9.77;;
22111;SDS011;11222;50.872;4.312;2023-05-10T10:10:24;12.75;;;9.00;;
22111;SDS011;11222;50.872;4.312;2023-05-10T10:12:50;13.65;;;8.88;;
22111;SDS011;11222;50.872;4.312;2023-05-10T10:15:16;13.38;;;8.68;;
22111;SDS011;11222;50.872;4.312;2023-05-10T10:17:42;12.52;;;8.90;;
22111;SDS011;11222;50.872;4.312;2023-05-10T10:20:09;12.35;;;8.50;;
22111;SDS011;11222;50.872;4.312;2023-05-10T10:22:36;13.73;;;9.73;;
22111;SDS011;11222;50.872;4.312;2023-05-10T10:25:02;15.02;;;9.05;;
22111;SDS011;11222;50.872;4.312;2023-05-10T10:27:47;10.95;;;8.70;;
22111;SDS011;11222;50.872;4.312;2023-05-10T10:33:10;11.73;;;8.77;;
22111;SDS011;11222;50.872;4.312;2023-05-10T10:35:58;10.68;;;8.40;;
22111;SDS011;11222;50.872;4.312;2023-05-10T10:38:25;11.02;;;8.73;;
22111;SDS011;11222;50.872;4.312;2023-05-10T10:41:10;13.60;;;8.80;;
22111;SDS011;11222;50.872;4.312;2023-05-10T10:49:26;13.30;;;8.48;;
22111;SDS011;11222;50.872;4.312;2023-05-10T10:57:53;11.50;;;7.90;;
22111;SDS011;11222;50.872;4.312;2023-05-10T11:02:58;11.48;;;8.35;;
22111;SDS011;11222;50.872;4.312;2023-05-10T11:08:26;13.30;;;8.32;;
22111;SDS011;11222;50.872;4.312;2023-05-10T11:13:40;11.40;;;8.32;;
22111;SDS011;11222;50.872;4.312;2023-05-10T11:16:40;11.68;;;7.78;;
22111;SDS011;11222;50.872;4.312;2023-05-10T11:19:15;12.27;;;7.57;;
22111;SDS011;11222;50.872;4.312;2023-05-10T11:21:46;11.73;;;8.35;;
22111;SDS011;11222;50.872;4.312;2023-05-10T11:24:20;12.15;;;8.25;;
22111;SDS011;11222;50.872;4.312;2023-05-10T11:26:49;13.32;;;8.88;;
22111;SDS011;11222;50.872;4.312;2023-05-10T11:29:16;12.02;;;8.32;;
22111;SDS011;11222;50.872;4.312;2023-05-10T11:31:43;13.05;;;8.57;;
22111;SDS011;11222;50.872;4.312;2023-05-10T11:34:10;9.77;;;8.10;;
22111;SDS011;11222;50.872;4.312;2023-05-10T11:36:36;9.90;;;7.82;;
22111;SDS011;11222;50.872;4.312;2023-05-10T11:39:02;13.02;;;8.40;;
22111;SDS011;11222;50.872;4.312;2023-05-10T11:41:29;12.10;;;8.85;;
22111;SDS011;11222;50.872;4.312;2023-05-10T11:43:56;15.77;;;9.48;;
22111;SDS011;11222;50.872;4.312;2023-05-10T11:46:24;14.20;;;9.68;;
22111;SDS011;11222;50.872;4.312;2023-05-10T11:48:52;14.68;;;10.18;;
22111;SDS011;11222;50.872;4.312;2023-05-10T11:51:22;12.73;;;8.93;;
22111;SDS011;11222;50.872;4.312;2023-05-10T11:53:50;12.23;;;9.20;;
22111;SDS011;11222;50.872;4.312;2023-05-10T11:56:18;15.32;;;10.00;;
22111;SDS011;11222;50.872;4.312;2023-05-10T11:58:53;12.85;;;9.15;;
22111;SDS011;11222;50.872;4.312;2023-05-10T12:01:20;14.10;;;9.90;;
22111;SDS011;11222;50.872;4.312;2023-05-10T12:03:47;14.77;;;10.27;;
22111;SDS011;11222;50.872;4.312;2023-05-10T12:06:13;14.30;;;10.50;;
22111;SDS011;11222;50.872;4.312;2023-05-10T12:08:43;14.27;;;10.95;;
22111;SDS011;11222;50.872;4.312;2023-05-10T12:11:10;14.95;;;10.88;;
22111;SDS011;11222;50.872;4.312;2023-05-10T12:13:37;13.50;;;10.18;;
22111;SDS011;11222;50.872;4.312;2023-05-10T12:18:43;14.65;;;10.30;;
22111;SDS011;11222;50.872;4.312;2023-05-10T12:21:10;15.93;;;10.68;;
22111;SDS011;11222;50.872;4.312;2023-05-10T12:23:37;15.23;;;10.02;;
22111;SDS011;11222;50.872;4.312;2023-05-10T12:26:07;13.43;;;10.07;;
22111;SDS011;11222;50.872;4.312;2023-05-10T12:28:35;14.70;;;10.48;;
22111;SDS011;11222;50.872;4.312;2023-05-10T12:31:01;13.90;;;9.80;;
22111;SDS011;11222;50.872;4.312;2023-05-10T12:33:27;13.85;;;10.00;;
22111;SDS011;11222;50.872;4.312;2023-05-10T12:36:00;14.30;;;9.13;;
22111;SDS011;11222;50.872;4.312;2023-05-10T12:38:29;12.32;;;9.27;;
22111;SDS011;11222;50.872;4.312;2023-05-10T12:40:58;13.32;;;9.55;;
22111;SDS011;11222;50.872;4.312;2023-05-10T12:43:25;16.52;;;9.73;;
22111;SDS011;11222;50.872;4.312;2023-05-10T12:45:51;12.05;;;9.25;;
22111;SDS011;11222;50.872;4.312;2023-05-10T12:48:17;14.48;;;9.15;;
22111;SDS011;11222;50.872;4.312;2023-05-10T12:50:45;12.93;;;9.23;;
22111;SDS011;11222;50.872;4.312;2023-05-10T12:53:11;12.10;;;8.68;;
22111;SDS011;11222;50.872;4.312;2023-05-10T12:55:38;10.15;;;8.13;;
22111;SDS011;11222;50.872;4.312;2023-05-10T12:58:04;11.57;;;9.02;;
22111;SDS011;11222;50.872;4.312;2023-05-10T13:00:30;16.42;;;8.95;;
22111;SDS011;11222;50.872;4.312;2023-05-10T13:02:56;11.32;;;9.07;;
22111;SDS011;11222;50.872;4.312;2023-05-10T13:05:21;10.32;;;7.65;;
22111;SDS011;11222;50.872;4.312;2023-05-10T13:07:47;11.63;;;7.90;;
22111;SDS011;11222;50.872;4.312;2023-05-10T13:10:13;8.93;;;7.65;;
22111;SDS011;11222;50.872;4.312;2023-05-10T13:12:39;10.10;;;7.93;;
22111;SDS011;11222;50.872;4.312;2023-05-10T13:15:05;10.65;;;8.98;;
22111;SDS011;11222;50.872;4.312;2023-05-10T13:17:31;9.85;;;8.00;;
22111;SDS011;11222;50.872;4.312;2023-05-10T13:19:57;11.65;;;8.18;;
22111;SDS011;11222;50.872;4.312;2023-05-10T13:22:23;11.00;;;8.90;;
22111;SDS011;11222;50.872;4.312;2023-05-10T13:24:48;16.30;;;9.57;;
22111;SDS011;11222;50.872;4.312;2023-05-10T13:27:14;12.00;;;9.18;;
22111;SDS011;11222;50.872;4.312;2023-05-10T13:29:40;12.20;;;9.18;;
22111;SDS011;11222;50.872;4.312;2023-05-10T13:32:05;18.30;;;12.23;;
22111;SDS011;11222;50.872;4.312;2023-05-10T13:34:31;12.18;;;9.45;;
22111;SDS011;11222;50.872;4.312;2023-05-10T13:36:57;12.15;;;8.90;;
22111;SDS011;11222;50.872;4.312;2023-05-10T13:39:23;17.08;;;9.18;;
22111;SDS011;11222;50.872;4.312;2023-05-10T13:41:49;13.55;;;9.32;;
22111;SDS011;11222;50.872;4.312;2023-05-10T13:44:14;11.77;;;9.48;;
22111;SDS011;11222;50.872;4.312;2023-05-10T13:46:40;14.88;;;10.10;;
22111;SDS011;11222;50.872;4.312;2023-05-10T13:49:08;13.50;;;9.10;;
22111;SDS011;11222;50.872;4.312;2023-05-10T13:51:34;15.60;;;10.90;;
22111;SDS011;11222;50.872;4.312;2023-05-10T13:54:01;12.10;;;10.05;;
22111;SDS011;11222;50.872;4.312;2023-05-10T13:56:27;14.02;;;10.55;;
22111;SDS011;11222;50.872;4.312;2023-05-10T13:58:53;13.68;;;11.13;;
22111;SDS011;11222;50.872;4.312;2023-05-10T14:01:18;14.82;;;10.75;;
22111;SDS011;11222;50.872;4.312;2023-05-10T14:03:44;14.38;;;10.45;;
22111;SDS011;11222;50.872;4.312;2023-05-10T14:06:10;14.73;;;11.00;;
22111;SDS011;11222;50.872;4.312;2023-05-10T14:08:36;14.77;;;11.70;;
22111;SDS011;11222;50.872;4.312;2023-05-10T14:11:02;15.27;;;11.52;;
22111;SDS011;11222;50.872;4.312;2023-05-10T14:13:28;17.02;;;11.50;;
22111;SDS011;11222;50.872;4.312;2023-05-10T14:15:54;16.20;;;12.00;;
22111;SDS011;11222;50.872;4.312;2023-05-10T14:18:20;18.13;;;12.13;;
22111;SDS011;11222;50.872;4.312;2023-05-10T14:20:46;15.23;;;11.13;;
22111;SDS011;11222;50.872;4.312;2023-05-10T14:23:12;18.90;;;12.52;;
22111;SDS011;11222;50.872;4.312;2023-05-10T14:25:39;15.57;;;11.35;;
22111;SDS011;11222;50.872;4.312;2023-05-10T14:28:05;16.85;;;11.48;;
22111;SDS011;11222;50.872;4.312;2023-05-10T14:30:31;14.38;;;11.50;;
22111;SDS011;11222;50.872;4.312;2023-05-10T14:32:59;15.90;;;11.73;;
22111;SDS011;11222;50.872;4.312;2023-05-10T14:35:26;16.70;;;11.43;;
22111;SDS011;11222;50.872;4.312;2023-05-10T14:37:52;17.55;;;11.65;;
22111;SDS011;11222;50.872;4.312;2023-05-10T14:40:18;17.98;;;12.32;;
22111;SDS011;11222;50.872;4.312;2023-05-10T14:42:44;18.88;;;11.88;;
22111;SDS011;11222;50.872;4.312;2023-05-10T14:45:09;15.48;;;11.55;;
22111;SDS011;11222;50.872;4.312;2023-05-10T14:47:36;18.08;;;11.88;;
22111;SDS011;11222;50.872;4.312;2023-05-10T14:50:01;15.23;;;11.52;;
22111;SDS011;11222;50.872;4.312;2023-05-10T14:52:27;18.13;;;12.80;;
22111;SDS011;11222;50.872;4.312;2023-05-10T14:54:54;17.90;;;12.48;;
22111;SDS011;11222;50.872;4.312;2023-05-10T14:57:20;17.42;;;12.65;;
22111;SDS011;11222;50.872;4.312;2023-05-10T14:59:46;16.02;;;11.80;;
22111;SDS011;11222;50.872;4.312;2023-05-10T15:02:11;15.35;;;11.25;;
22111;SDS011;11222;50.872;4.312;2023-05-10T15:04:38;7.07;;;5.43;;
22111;SDS011;11222;50.872;4.312;2023-05-10T15:07:04;8.40;;;4.20;;
22111;SDS011;11222;50.872;4.312;2023-05-10T15:09:29;8.05;;;3.72;;
22111;SDS011;11222;50.872;4.312;2023-05-10T15:11:55;11.63;;;4.68;;
22111;SDS011;11222;50.872;4.312;2023-05-10T15:14:21;6.95;;;4.10;;
22111;SDS011;11222;50.872;4.312;2023-05-10T15:16:47;11.10;;;5.20;;
22111;SDS011;11222;50.872;4.312;2023-05-10T15:19:13;7.78;;;4.13;;